createdAt,value
2022-08-20T00:00:50.217Z,99772.22
2022-08-20T00:03:29.917Z,99720.78
2022-08-20T00:06:24.141Z,99766.72
2022-08-20T00:08:54.825Z,99757.44
2022-08-20T00:11:29.417Z,99756.63
2022-08-20T00:13:59.776Z,99728.75
2022-08-20T00:16:29.773Z,99747.59
2022-08-20T00:18:56.762Z,99676.84
2022-08-20T00:21:25.707Z,99785.88
2022-08-20T00:27:54.249Z,99766.41
2022-08-20T00:33:56.316Z,99760.94
2022-08-20T00:36:35.310Z,99748.69
2022-08-20T00:39:55.719Z,99674.06
2022-08-20T00:42:30.419Z,99754.13
2022-08-20T00:48:54.682Z,99612.78
2022-08-20T00:51:29.886Z,99767.47
2022-08-20T00:54:07.164Z,99697.78
2022-08-20T00:56:35.185Z,99663.06
2022-08-20T00:59:03.352Z,99741.25
2022-08-20T01:01:34.170Z,99726.53
2022-08-20T01:04:34.992Z,99736.09
2022-08-20T01:07:02.796Z,99735.53
2022-08-20T01:09:49.721Z,99723.78
2022-08-20T01:12:18.774Z,99689.13
2022-08-20T01:14:47.677Z,99648.41
2022-08-20T01:17:19.709Z,99658.53
2022-08-20T01:19:55.649Z,99641.81
2022-08-20T01:23:04.276Z,99682.28
2022-08-20T01:26:03.772Z,99682.53
2022-08-20T01:28:47.439Z,99688.81
2022-08-20T01:31:23.548Z,99704.09
2022-08-20T01:33:53.343Z,99701.88
2022-08-20T01:36:46.451Z,99643.13
2022-08-20T01:39:18.401Z,99695.38
2022-08-20T01:42:03.403Z,99659.88
2022-08-20T01:44:31.914Z,99692.38
2022-08-20T01:47:09.770Z,99665.06
2022-08-20T01:49:44.023Z,99627.06
2022-08-20T01:52:20.024Z,99679.53
2022-08-20T01:54:46.908Z,99666.66
2022-08-20T01:57:17.130Z,99689.34
2022-08-20T01:59:44.174Z,99723.75
2022-08-20T02:02:12.733Z,99674.25
2022-08-20T02:04:41.215Z,99728.41
2022-08-20T02:07:12.412Z,99708.19
2022-08-20T02:09:39.875Z,99707.09
2022-08-20T02:12:09.805Z,99665.56
2022-08-20T02:14:43.953Z,99686.38
2022-08-20T02:17:12.827Z,99683.09
2022-08-20T02:19:48.324Z,99680.63
2022-08-20T02:22:34.453Z,99675.44
2022-08-20T02:25:02.202Z,99662.88
2022-08-20T02:27:29.315Z,99651.97
2022-08-20T02:29:56.103Z,99642.94
2022-08-20T02:32:32.563Z,99643.75
2022-08-20T02:35:03.760Z,99666.41
2022-08-20T02:37:31.525Z,99629.81
2022-08-20T02:39:58.816Z,99653.88
2022-08-20T02:42:26.524Z,99633.38
2022-08-20T02:44:54.657Z,99643.78
2022-08-20T02:47:21.698Z,99613.97
2022-08-20T02:49:49.629Z,99573.28
2022-08-20T02:52:25.696Z,99609.56
2022-08-20T02:54:53.330Z,99563.09
2022-08-20T02:57:20.794Z,99547.25
2022-08-20T02:59:48.898Z,99565.81
2022-08-20T03:02:15.922Z,99599.91
2022-08-20T03:04:42.989Z,99614.56
2022-08-20T03:07:11.878Z,99491.25
2022-08-20T03:09:40.871Z,99541.16
2022-08-20T03:12:08.833Z,99593.56
2022-08-20T03:14:41.285Z,99560.94
2022-08-20T03:17:08.535Z,99559.72
2022-08-20T03:19:35.454Z,99599.94
2022-08-20T03:22:02.323Z,99585.72
2022-08-20T03:24:30.617Z,99635.41
2022-08-20T03:26:57.741Z,99645.50
2022-08-20T03:29:24.850Z,99533.84
2022-08-20T03:31:51.846Z,99626.44
2022-08-20T03:34:23.896Z,99672.09
2022-08-20T03:37:05.746Z,99642.47
2022-08-20T03:39:43.548Z,99655.63
2022-08-20T03:42:10.549Z,99648.69
2022-08-20T03:44:39.786Z,99685.34
2022-08-20T03:47:09.750Z,99700.34
2022-08-20T03:49:37.037Z,99708.53
2022-08-20T03:52:09.806Z,99681.88
2022-08-20T03:54:49.327Z,99722.13
2022-08-20T03:57:16.605Z,99721.56
2022-08-20T04:02:34.713Z,99704.59
2022-08-20T04:05:01.676Z,99651.44
2022-08-20T04:07:28.723Z,99709.69
2022-08-20T04:09:56.895Z,99721.97
2022-08-20T04:12:25.239Z,99700.25
2022-08-20T04:14:54.497Z,99731.16
2022-08-20T04:17:23.383Z,99744.75
2022-08-20T04:19:50.225Z,99759.84
2022-08-20T04:22:17.071Z,99726.56
2022-08-20T04:24:44.583Z,99752.16
2022-08-20T04:27:12.378Z,99757.59
2022-08-20T04:29:43.220Z,99762.63
2022-08-20T04:32:10.588Z,99757.16
2022-08-20T04:37:31.439Z,99777.50
2022-08-20T04:40:23.711Z,99622.56
2022-08-20T04:43:05.247Z,99736.91
2022-08-20T04:45:34.747Z,99613.53
2022-08-20T04:48:15.500Z,99711.41
2022-08-20T04:50:45.019Z,99786.66
2022-08-20T04:53:14.458Z,99732.81
2022-08-20T04:55:42.995Z,99709.88
2022-08-20T04:58:19.835Z,99706.53
2022-08-20T05:00:52.454Z,99748.97
2022-08-20T05:03:20.144Z,99809.72
2022-08-20T05:05:47.873Z,99809.47
2022-08-20T05:08:19.632Z,99774.38
2022-08-20T05:10:47.562Z,99827.50
2022-08-20T05:13:14.321Z,99822.88
2022-08-20T05:15:41.503Z,99823.66
2022-08-20T05:18:09.453Z,99789.78
2022-08-20T05:20:40.283Z,99826.28
2022-08-20T05:23:14.057Z,99823.31
2022-08-20T05:25:43.157Z,99835.13
2022-08-20T05:28:13.333Z,99787.00
2022-08-20T05:30:42.093Z,99850.22
2022-08-20T05:33:14.081Z,99845.03
2022-08-20T05:35:41.967Z,99822.59
2022-08-20T05:38:12.082Z,99840.97
2022-08-20T05:40:41.664Z,99852.97
2022-08-20T05:43:09.402Z,99811.13
2022-08-20T05:45:38.307Z,99860.69
2022-08-20T05:48:12.874Z,99857.09
2022-08-20T05:50:43.445Z,99859.63
2022-08-20T05:53:10.582Z,99835.75
2022-08-20T05:55:38.510Z,99824.56
2022-08-20T05:58:25.208Z,99834.16
2022-08-20T06:00:53.937Z,99831.59
2022-08-20T06:03:42.290Z,99831.31
2022-08-20T06:06:15.116Z,99832.16
2022-08-20T06:09:00.215Z,99829.78
2022-08-20T06:11:27.398Z,99817.78
2022-08-20T06:13:54.279Z,99810.66
2022-08-20T06:16:22.068Z,99820.47
2022-08-20T06:18:58.236Z,99759.72
2022-08-20T06:21:26.669Z,99752.00
2022-08-20T06:24:01.497Z,99791.44
2022-08-20T06:26:30.905Z,99750.69
2022-08-20T06:29:04.773Z,99737.69
2022-08-20T06:31:32.134Z,99699.47
2022-08-20T06:34:04.885Z,99756.91
2022-08-20T06:36:32.072Z,99643.22
2022-08-20T06:38:59.521Z,99751.44
2022-08-20T06:41:36.125Z,99770.31
2022-08-20T06:44:14.869Z,99803.94
2022-08-20T06:46:43.476Z,99707.72
2022-08-20T06:49:10.833Z,99691.59
2022-08-20T06:51:38.331Z,99754.69
2022-08-20T06:54:36.462Z,99809.88
2022-08-20T06:57:05.332Z,99736.66
2022-08-20T06:59:32.787Z,99716.69
2022-08-20T07:02:05.978Z,99777.06
2022-08-20T07:04:59.733Z,99831.19
2022-08-20T07:07:26.877Z,99828.19
2022-08-20T07:10:12.392Z,99761.50
2022-08-20T07:12:39.376Z,99750.03
2022-08-20T07:15:10.216Z,99757.13
2022-08-20T07:17:37.380Z,99756.59
2022-08-20T07:20:11.638Z,99820.75
2022-08-20T07:22:39.278Z,99781.63
2022-08-20T07:25:08.684Z,99788.41
2022-08-20T07:27:35.840Z,99701.31
2022-08-20T07:30:24.929Z,99750.91
2022-08-20T07:32:52.215Z,99774.69
2022-08-20T07:35:20.611Z,99829.81
2022-08-20T07:37:51.790Z,99790.75
2022-08-20T07:40:27.955Z,99751.31
2022-08-20T07:43:05.318Z,99794.31
2022-08-20T07:45:32.250Z,99819.47
2022-08-20T07:48:12.361Z,99848.31
2022-08-20T07:51:01.030Z,99861.31
2022-08-20T07:53:42.631Z,99875.84
2022-08-20T07:56:12.251Z,99874.22
2022-08-20T07:58:44.901Z,99874.41
2022-08-20T08:01:11.935Z,99867.94
2022-08-20T08:03:49.301Z,99865.06
2022-08-20T08:06:29.149Z,99880.66
2022-08-20T08:08:59.607Z,99886.56
2022-08-20T08:11:26.641Z,99895.75
2022-08-20T08:13:53.452Z,99887.44
2022-08-20T08:16:21.277Z,99887.41
2022-08-20T08:18:59.558Z,99901.66
2022-08-20T08:21:26.618Z,99890.81
2022-08-20T08:23:53.662Z,99919.47
2022-08-20T08:26:21.857Z,99905.31
2022-08-20T08:28:48.770Z,99894.31
2022-08-20T08:31:16.047Z,99924.19
2022-08-20T08:33:44.546Z,99934.44
2022-08-20T08:36:14.555Z,99937.03
2022-08-20T08:38:44.453Z,99932.38
2022-08-20T08:41:19.830Z,99940.00
2022-08-20T08:43:53.936Z,99925.41
2022-08-20T08:46:25.629Z,99941.09
2022-08-20T08:48:57.909Z,99947.16
2022-08-20T08:51:32.984Z,99926.31
2022-08-20T08:54:06.911Z,99894.06
2022-08-20T08:56:35.077Z,99942.03
2022-08-20T08:59:05.642Z,99918.50
2022-08-20T09:01:54.720Z,99945.03
2022-08-20T09:05:00.620Z,99942.84
2022-08-20T09:07:31.424Z,99910.56
2022-08-20T09:10:00.324Z,99920.41
2022-08-20T09:12:28.050Z,99779.19
2022-08-20T09:14:55.386Z,99839.03
2022-08-20T09:17:28.429Z,99716.00
2022-08-20T09:19:56.925Z,99898.38
2022-08-20T09:26:29.294Z,99900.41
2022-08-20T09:29:15.097Z,99910.91
2022-08-20T09:31:42.505Z,99871.28
2022-08-20T09:34:10.169Z,99879.34
2022-08-20T09:36:36.940Z,99852.88
2022-08-20T09:39:03.848Z,99937.97
2022-08-20T09:41:33.581Z,99926.38
2022-08-20T09:44:00.636Z,99902.72
2022-08-20T09:46:27.730Z,99933.34
2022-08-20T09:48:55.360Z,99924.69
2022-08-20T09:51:23.005Z,99952.09
2022-08-20T09:53:50.519Z,99979.50
2022-08-20T09:56:18.156Z,99975.09
2022-08-20T09:58:54.309Z,100018.75
2022-08-20T10:01:22.844Z,100020.31
2022-08-20T10:03:50.505Z,100083.44
2022-08-20T10:06:19.854Z,100100.28
2022-08-20T10:08:47.618Z,100134.03
2022-08-20T10:11:14.739Z,100135.56
2022-08-20T10:13:41.892Z,100124.13
2022-08-20T10:16:08.970Z,100089.16
2022-08-20T10:18:37.079Z,100070.00
2022-08-20T10:21:10.761Z,100068.84
2022-08-20T10:23:37.772Z,100129.66
2022-08-20T10:26:04.593Z,100110.16
2022-08-20T10:28:31.410Z,100111.28
2022-08-20T10:30:58.397Z,100161.34
2022-08-20T10:33:25.366Z,100154.59
2022-08-20T10:35:55.681Z,100147.88
2022-08-20T10:38:26.870Z,100162.53
2022-08-20T10:40:53.853Z,100154.06
2022-08-20T10:43:20.567Z,100180.66
2022-08-20T10:45:47.442Z,100198.25
2022-08-20T10:48:17.140Z,100200.28
2022-08-20T10:50:46.412Z,100189.66
2022-08-20T10:53:13.599Z,100133.56
2022-08-20T10:55:40.392Z,100063.03
2022-08-20T10:58:08.882Z,100130.16
2022-08-20T11:00:39.383Z,100153.72
2022-08-20T11:03:06.303Z,100151.31
2022-08-20T11:05:34.121Z,100140.84
2022-08-20T11:08:04.022Z,100092.59
2022-08-20T11:10:34.056Z,100148.72
2022-08-20T11:13:02.384Z,100151.41
2022-08-20T11:15:29.343Z,100131.16
2022-08-20T11:17:57.167Z,100047.19
2022-08-20T11:20:26.239Z,100062.31
2022-08-20T11:22:54.706Z,100112.31
2022-08-20T11:25:21.556Z,100107.59
2022-08-20T11:27:51.862Z,100095.19
2022-08-20T11:30:26.060Z,99981.34
2022-08-20T11:32:53.510Z,100022.47
2022-08-20T11:35:43.397Z,100038.97
2022-08-20T11:38:11.515Z,99999.56
2022-08-20T11:40:38.821Z,99858.16
2022-08-20T11:43:20.817Z,99937.41
2022-08-20T11:45:56.068Z,99968.13
2022-08-20T11:48:23.754Z,99945.47
2022-08-20T11:50:52.039Z,99984.19
2022-08-20T11:53:24.207Z,99980.19
2022-08-20T11:55:52.529Z,99989.28
2022-08-20T11:58:19.513Z,99979.50
2022-08-20T12:00:46.363Z,99991.97
2022-08-20T12:03:13.792Z,99994.97
2022-08-20T12:05:43.121Z,99991.72
2022-08-20T12:08:26.944Z,99994.19
2022-08-20T12:10:56.534Z,99980.53
2022-08-20T12:13:30.638Z,99998.66
2022-08-20T12:16:12.925Z,99956.34
2022-08-20T12:18:39.669Z,99968.41
2022-08-20T12:21:08.478Z,99975.84
2022-08-20T12:23:36.041Z,99997.03
2022-08-20T12:26:03.598Z,99944.03
2022-08-20T12:28:31.915Z,99881.84
2022-08-20T12:30:59.396Z,99874.31
2022-08-20T12:33:29.028Z,99961.13
2022-08-20T12:38:44.743Z,99833.28
2022-08-20T12:41:11.766Z,99942.31
2022-08-20T12:47:34.016Z,99926.88
2022-08-20T12:50:10.179Z,99913.09
2022-08-20T12:52:37.880Z,99916.56
2022-08-20T12:56:33.341Z,99977.28
2022-08-20T12:59:03.700Z,99781.72
2022-08-20T13:01:31.316Z,99848.78
2022-08-20T13:03:58.800Z,99917.38
2022-08-20T13:06:25.670Z,99885.69
2022-08-20T13:08:52.848Z,99954.19
2022-08-20T13:11:19.579Z,99923.88
2022-08-20T13:13:47.716Z,99962.56
2022-08-20T13:16:14.743Z,99971.97
2022-08-20T13:18:41.651Z,99928.31
2022-08-20T13:21:08.449Z,99978.00
2022-08-20T13:23:35.595Z,99966.69
2022-08-20T13:26:02.646Z,99983.31
2022-08-20T13:28:29.449Z,99949.81
2022-08-20T13:30:56.351Z,99960.19
2022-08-20T13:33:23.168Z,99943.09
2022-08-20T13:35:50.564Z,99946.38
2022-08-20T13:38:17.920Z,99970.78
2022-08-20T13:40:44.782Z,99896.41
2022-08-20T13:43:16.233Z,99873.31
2022-08-20T13:45:43.471Z,99931.41
2022-08-20T13:48:14.697Z,99955.34
2022-08-20T13:50:42.700Z,99941.94
2022-08-20T13:53:10.222Z,99934.94
2022-08-20T13:55:38.484Z,99934.22
2022-08-20T13:58:07.766Z,99899.69
2022-08-20T14:00:36.314Z,99873.88
2022-08-20T14:03:05.109Z,99805.53
2022-08-20T14:05:33.063Z,99854.09
2022-08-20T14:08:30.876Z,99923.50
2022-08-20T14:10:57.765Z,99916.44
2022-08-20T14:13:26.078Z,99901.94
2022-08-20T14:15:53.305Z,99869.28
2022-08-20T14:18:20.677Z,99920.47
2022-08-20T14:20:48.109Z,99920.69
2022-08-20T14:23:15.493Z,99904.91
2022-08-20T14:25:46.210Z,99897.81
2022-08-20T14:28:19.898Z,99904.91
2022-08-20T14:30:53.225Z,99920.09
2022-08-20T14:33:22.797Z,99887.69
2022-08-20T14:35:49.841Z,99923.97
2022-08-20T14:38:17.792Z,99884.84
2022-08-20T14:40:45.026Z,99851.75
2022-08-20T14:43:12.016Z,99907.00
2022-08-20T14:45:38.874Z,99881.78
2022-08-20T14:48:09.338Z,99905.72
2022-08-20T14:50:36.920Z,99924.69
2022-08-20T14:53:04.852Z,99942.25
2022-08-20T14:55:35.891Z,99916.66
2022-08-20T14:58:07.708Z,99921.22
2022-08-20T15:00:34.950Z,99896.72
2022-08-20T15:03:02.023Z,99941.75
2022-08-20T15:05:29.895Z,99931.47
2022-08-20T15:07:57.797Z,99862.88
2022-08-20T15:10:29.838Z,99912.03
2022-08-20T15:12:58.142Z,99885.94
2022-08-20T15:15:25.781Z,99933.97
2022-08-20T15:17:56.198Z,99919.00
2022-08-20T15:20:26.327Z,99923.13
2022-08-20T15:22:57.152Z,99899.53
2022-08-20T15:25:26.624Z,99936.78
2022-08-20T15:28:17.291Z,99908.09
2022-08-20T15:30:57.297Z,99928.63
2022-08-20T15:33:24.244Z,99861.19
2022-08-20T15:36:04.655Z,99943.03
2022-08-20T15:38:33.061Z,99788.88
2022-08-20T15:41:03.168Z,99948.31
2022-08-20T15:43:32.591Z,99967.41
2022-08-20T15:46:00.962Z,99937.66
2022-08-20T15:48:32.189Z,99967.28
2022-08-20T15:51:11.907Z,99969.31
2022-08-20T15:54:02.387Z,99975.66
2022-08-20T15:56:50.883Z,99936.69
2022-08-20T15:59:39.240Z,99928.72
2022-08-20T16:02:20.598Z,99952.00
2022-08-20T16:05:09.828Z,99952.78
2022-08-20T16:08:04.637Z,99961.34
2022-08-20T16:10:42.449Z,99968.72
2022-08-20T16:13:41.605Z,99933.47
2022-08-20T16:16:16.424Z,99892.53
2022-08-20T16:18:48.189Z,99941.13
2022-08-20T16:21:19.006Z,99906.94
2022-08-20T16:23:47.334Z,99851.91
2022-08-20T16:26:23.228Z,99926.28
2022-08-20T16:28:56.286Z,99911.47
2022-08-20T16:31:28.120Z,99851.78
2022-08-20T16:34:33.226Z,99919.09
2022-08-20T16:37:16.347Z,99918.38
2022-08-20T16:39:58.572Z,99915.25
2022-08-20T16:42:32.937Z,99916.41
2022-08-20T16:45:01.987Z,99853.94
2022-08-20T16:47:34.463Z,99873.78
2022-08-20T16:50:01.542Z,99917.09
2022-08-20T16:52:28.874Z,99811.69
2022-08-20T16:54:59.659Z,99745.78
2022-08-20T16:57:28.869Z,99729.31
2022-08-20T17:00:24.881Z,99897.31
2022-08-20T17:03:00.813Z,99842.22
2022-08-20T17:05:49.778Z,99886.59
2022-08-20T17:08:28.526Z,99871.91
2022-08-20T17:11:11.396Z,99929.00
2022-08-20T17:13:41.610Z,99872.63
2022-08-20T17:16:21.024Z,99922.63
2022-08-20T17:18:51.382Z,99919.09
2022-08-20T17:21:38.393Z,99909.84
2022-08-20T17:24:16.638Z,99918.44
2022-08-20T17:26:56.192Z,99913.84
2022-08-20T17:29:28.117Z,99890.38
2022-08-20T17:31:58.397Z,99903.22
2022-08-20T17:35:01.157Z,99898.28
2022-08-20T17:37:33.744Z,99916.78
2022-08-20T17:40:11.819Z,99807.44
2022-08-20T17:42:58.516Z,99749.72
2022-08-20T17:48:35.859Z,99816.84
2022-08-20T17:51:21.886Z,99832.63
2022-08-20T17:54:15.333Z,99796.28
2022-08-20T17:56:48.250Z,99832.94
2022-08-20T17:59:59.538Z,99909.63
2022-08-20T18:02:10.646Z,99937.84
2022-08-20T18:04:53.954Z,99824.34
2022-08-20T18:07:41.870Z,99942.09
2022-08-20T18:10:21.099Z,99879.78
2022-08-20T18:12:54.153Z,99925.06
2022-08-20T18:15:31.984Z,99921.38
2022-08-20T18:18:11.731Z,99922.88
2022-08-20T18:25:15.389Z,99915.94
2022-08-20T18:27:50.923Z,99907.75
2022-08-20T18:30:21.167Z,99916.84
2022-08-20T18:33:08.013Z,99740.25
2022-08-20T18:35:45.636Z,99892.03
2022-08-20T18:38:29.528Z,99918.81
2022-08-20T18:41:29.706Z,99765.00
2022-08-20T18:44:40.797Z,99908.81
2022-08-20T18:47:35.624Z,99731.94
2022-08-20T18:50:16.028Z,99910.53
2022-08-20T18:56:51.836Z,99909.31
2022-08-20T18:59:47.282Z,99823.91
2022-08-20T19:02:29.493Z,99841.25
2022-08-20T19:05:02.791Z,99891.59
2022-08-20T19:07:43.100Z,99878.03
2022-08-20T19:10:30.753Z,99921.19
2022-08-20T19:13:18.216Z,99916.63
2022-08-20T19:16:20.953Z,99923.69
2022-08-20T19:19:14.824Z,99783.25
2022-08-20T19:21:54.836Z,99763.38
2022-08-20T19:24:34.383Z,99784.00
2022-08-20T19:27:07.728Z,99840.81
2022-08-20T19:29:47.917Z,99915.34
2022-08-20T19:32:34.658Z,99827.28
2022-08-20T19:35:12.048Z,99847.78
2022-08-20T19:37:52.169Z,99949.38
2022-08-20T19:40:28.615Z,99934.28
2022-08-20T19:43:13.338Z,99839.47
2022-08-20T19:45:53.529Z,99904.75
2022-08-20T19:48:51.685Z,100010.75
2022-08-20T19:51:35.101Z,100008.91
2022-08-20T19:55:04.018Z,99980.84
2022-08-20T19:57:31.594Z,99953.59
2022-08-20T20:00:14.736Z,99997.19
2022-08-20T20:02:41.738Z,99908.06
2022-08-20T20:05:10.343Z,99876.41
2022-08-20T20:07:46.894Z,99882.25
2022-08-20T20:10:32.161Z,99978.81
2022-08-20T20:13:13.646Z,99972.66
2022-08-20T20:15:42.650Z,99976.25
2022-08-20T20:18:10.396Z,99939.34
2022-08-20T20:20:57.038Z,99964.34
2022-08-20T20:23:38.499Z,99958.69
2022-08-20T20:26:20.417Z,99874.59
2022-08-20T20:35:47.142Z,99926.25
2022-08-20T20:38:46.155Z,99956.16
2022-08-20T20:41:29.776Z,99929.78
2022-08-20T20:44:03.648Z,99848.78
2022-08-20T20:46:33.726Z,99941.41
2022-08-20T20:49:08.194Z,99915.38
2022-08-20T20:51:40.400Z,100028.13
2022-08-20T20:54:24.153Z,100036.63
2022-08-20T20:57:06.585Z,100066.13
2022-08-20T20:59:35.419Z,100048.31
2022-08-20T21:02:03.166Z,100037.28
2022-08-20T21:04:30.753Z,100028.72
2022-08-20T21:10:10.302Z,99864.03
2022-08-20T21:12:39.255Z,99929.53
2022-08-20T21:15:06.722Z,99971.88
2022-08-20T21:17:33.620Z,100012.44
2022-08-20T21:20:01.951Z,99988.63
2022-08-20T21:22:33.988Z,99966.09
2022-08-20T21:25:01.436Z,100020.47
2022-08-20T21:27:29.936Z,100015.38
2022-08-20T21:29:57.216Z,99984.16
2022-08-20T21:32:24.557Z,99961.66
2022-08-20T21:34:53.448Z,99989.63
2022-08-20T21:37:20.298Z,99955.75
2022-08-20T21:39:47.574Z,99932.66
2022-08-20T21:42:28.568Z,99978.34
2022-08-20T21:45:00.063Z,100010.88
2022-08-20T21:47:28.452Z,99982.53
2022-08-20T21:49:55.431Z,100008.00
2022-08-20T21:52:23.490Z,100002.22
2022-08-20T21:54:50.413Z,99990.50
2022-08-20T21:57:28.875Z,99985.97
2022-08-20T21:59:57.281Z,99986.56
2022-08-20T22:02:25.246Z,99945.81
2022-08-20T22:04:54.015Z,99972.50
2022-08-20T22:07:21.716Z,99958.22
2022-08-20T22:09:48.450Z,99962.00
2022-08-20T22:12:23.272Z,99952.91
2022-08-20T22:14:50.743Z,99963.22
2022-08-20T22:17:17.986Z,99962.00
2022-08-20T22:19:45.005Z,99967.84
2022-08-20T22:22:13.457Z,99969.31
2022-08-20T22:24:40.308Z,99892.38
2022-08-20T22:27:07.808Z,99945.94
2022-08-20T22:29:34.856Z,99925.41
2022-08-20T22:32:02.379Z,99943.38
2022-08-20T22:34:35.929Z,99965.06
2022-08-20T22:37:04.180Z,99967.09
2022-08-20T22:39:31.034Z,99895.72
2022-08-20T22:41:58.157Z,99927.63
2022-08-20T22:44:25.232Z,99928.22
2022-08-20T22:46:55.896Z,99952.41
2022-08-20T22:49:27.168Z,99948.84
2022-08-20T22:51:54.224Z,99897.31
2022-08-20T22:54:25.043Z,99893.84
2022-08-20T22:56:54.130Z,99921.97
2022-08-20T22:59:22.227Z,99865.06
2022-08-20T23:01:50.503Z,99913.41
2022-08-20T23:04:26.463Z,99922.72
2022-08-20T23:06:54.966Z,99892.28
2022-08-20T23:09:22.325Z,99916.25
2022-08-20T23:11:49.819Z,99867.03
2022-08-20T23:14:17.122Z,99892.66
2022-08-20T23:17:01.903Z,99884.16
2022-08-20T23:19:29.497Z,99898.16
2022-08-20T23:21:56.567Z,99912.59
2022-08-20T23:24:36.712Z,99893.50
2022-08-20T23:27:06.590Z,99830.72
2022-08-20T23:29:33.939Z,99896.00
2022-08-20T23:32:00.885Z,99891.88
2022-08-20T23:34:28.412Z,99904.97
2022-08-20T23:36:56.988Z,99918.44
2022-08-20T23:39:25.632Z,99899.19
2022-08-20T23:41:52.946Z,99881.00
2022-08-20T23:44:25.805Z,99850.44
2022-08-20T23:47:00.306Z,99862.38
2022-08-20T23:49:28.219Z,99882.69
2022-08-20T23:51:55.848Z,99823.09
2022-08-20T23:54:22.727Z,99931.00
2022-08-20T23:56:49.716Z,99936.41
2022-08-20T23:59:16.993Z,99883.94
